sensor_id;sensor_type;location;lat;lon;timestamp;P1;durP1;ratioP1;P2;durP2;ratioP2
36359;SDS011;22388;52.432;20.662;2024-02-28T00:00:23;76.30;;;47.58;;
36359;SDS011;22388;52.432;20.662;2024-02-28T00:02:48;75.93;;;49.40;;
36359;SDS011;22388;52.432;20.662;2024-02-28T00:05:14;78.60;;;50.88;;
36359;SDS011;22388;52.432;20.662;2024-02-28T00:07:39;79.82;;;51.63;;
36359;SDS011;22388;52.432;20.662;2024-02-28T00:10:05;80.07;;;49.53;;
36359;SDS011;22388;52.432;20.662;2024-02-28T00:12:30;85.68;;;52.50;;
36359;SDS011;22388;52.432;20.662;2024-02-28T00:14:56;87.57;;;53.03;;
36359;SDS011;22388;52.432;20.662;2024-02-28T00:17:21;80.15;;;51.42;;
36359;SDS011;22388;52.432;20.662;2024-02-28T00:19:47;84.82;;;50.67;;
36359;SDS011;22388;52.432;20.662;2024-02-28T00:22:13;88.07;;;55.10;;
36359;SDS011;22388;52.432;20.662;2024-02-28T00:24:38;86.80;;;53.40;;
36359;SDS011;22388;52.432;20.662;2024-02-28T00:27:04;77.97;;;52.17;;
36359;SDS011;22388;52.432;20.662;2024-02-28T00:29:29;83.53;;;53.20;;
36359;SDS011;22388;52.432;20.662;2024-02-28T00:31:54;77.65;;;50.00;;
36359;SDS011;22388;52.432;20.662;2024-02-28T00:34:20;81.90;;;52.15;;
36359;SDS011;22388;52.432;20.662;2024-02-28T00:36:45;84.25;;;54.00;;
36359;SDS011;22388;52.432;20.662;2024-02-28T00:39:11;85.55;;;53.08;;
36359;SDS011;22388;52.432;20.662;2024-02-28T00:41:37;91.97;;;53.15;;
36359;SDS011;22388;52.432;20.662;2024-02-28T00:44:02;88.72;;;53.63;;
36359;SDS011;22388;52.432;20.662;2024-02-28T00:46:28;83.55;;;53.53;;
36359;SDS011;22388;52.432;20.662;2024-02-28T00:48:53;83.53;;;54.22;;
36359;SDS011;22388;52.432;20.662;2024-02-28T00:51:19;86.05;;;57.70;;
36359;SDS011;22388;52.432;20.662;2024-02-28T00:53:44;87.10;;;52.97;;
36359;SDS011;22388;52.432;20.662;2024-02-28T00:56:09;87.45;;;54.17;;
36359;SDS011;22388;52.432;20.662;2024-02-28T00:58:35;88.15;;;56.65;;
36359;SDS011;22388;52.432;20.662;2024-02-28T01:01:00;89.78;;;56.28;;
36359;SDS011;22388;52.432;20.662;2024-02-28T01:03:26;89.00;;;58.92;;
36359;SDS011;22388;52.432;20.662;2024-02-28T01:05:51;94.10;;;59.88;;
36359;SDS011;22388;52.432;20.662;2024-02-28T01:08:17;84.50;;;55.97;;
36359;SDS011;22388;52.432;20.662;2024-02-28T01:10:43;88.63;;;58.15;;
36359;SDS011;22388;52.432;20.662;2024-02-28T01:13:08;90.28;;;58.13;;
36359;SDS011;22388;52.432;20.662;2024-02-28T01:15:33;94.78;;;61.60;;
36359;SDS011;22388;52.432;20.662;2024-02-28T01:17:59;91.53;;;59.65;;
36359;SDS011;22388;52.432;20.662;2024-02-28T01:20:25;91.90;;;61.42;;
36359;SDS011;22388;52.432;20.662;2024-02-28T01:22:50;89.07;;;58.47;;
36359;SDS011;22388;52.432;20.662;2024-02-28T01:25:15;100.43;;;62.28;;
36359;SDS011;22388;52.432;20.662;2024-02-28T01:27:41;99.10;;;62.80;;
36359;SDS011;22388;52.432;20.662;2024-02-28T01:30:06;95.25;;;62.47;;
36359;SDS011;22388;52.432;20.662;2024-02-28T01:32:32;100.70;;;63.22;;
36359;SDS011;22388;52.432;20.662;2024-02-28T01:34:57;103.25;;;65.90;;
36359;SDS011;22388;52.432;20.662;2024-02-28T01:37:23;104.05;;;67.00;;
36359;SDS011;22388;52.432;20.662;2024-02-28T01:39:48;101.13;;;68.15;;
36359;SDS011;22388;52.432;20.662;2024-02-28T01:42:14;91.63;;;62.88;;
36359;SDS011;22388;52.432;20.662;2024-02-28T01:44:47;97.75;;;64.13;;
36359;SDS011;22388;52.432;20.662;2024-02-28T01:47:13;104.05;;;65.65;;
36359;SDS011;22388;52.432;20.662;2024-02-28T01:49:39;92.40;;;61.78;;
36359;SDS011;22388;52.432;20.662;2024-02-28T01:52:05;94.38;;;61.20;;
36359;SDS011;22388;52.432;20.662;2024-02-28T01:54:31;99.55;;;62.88;;
36359;SDS011;22388;52.432;20.662;2024-02-28T01:56:56;94.47;;;59.78;;
36359;SDS011;22388;52.432;20.662;2024-02-28T01:59:22;97.10;;;61.55;;
36359;SDS011;22388;52.432;20.662;2024-02-28T02:01:49;98.72;;;61.83;;
36359;SDS011;22388;52.432;20.662;2024-02-28T02:04:15;89.47;;;57.25;;
36359;SDS011;22388;52.432;20.662;2024-02-28T02:06:41;100.18;;;58.42;;
36359;SDS011;22388;52.432;20.662;2024-02-28T02:09:07;90.43;;;59.20;;
36359;SDS011;22388;52.432;20.662;2024-02-28T02:11:33;91.93;;;59.10;;
36359;SDS011;22388;52.432;20.662;2024-02-28T02:13:59;89.90;;;55.78;;
36359;SDS011;22388;52.432;20.662;2024-02-28T02:16:24;87.32;;;57.22;;
36359;SDS011;22388;52.432;20.662;2024-02-28T02:18:52;83.35;;;57.08;;
36359;SDS011;22388;52.432;20.662;2024-02-28T02:21:19;99.75;;;62.83;;
36359;SDS011;22388;52.432;20.662;2024-02-28T02:23:45;104.15;;;64.10;;
36359;SDS011;22388;52.432;20.662;2024-02-28T02:26:10;107.85;;;68.88;;
36359;SDS011;22388;52.432;20.662;2024-02-28T02:28:36;106.35;;;69.68;;
36359;SDS011;22388;52.432;20.662;2024-02-28T02:31:01;103.68;;;67.82;;
36359;SDS011;22388;52.432;20.662;2024-02-28T02:33:27;104.18;;;65.68;;
36359;SDS011;22388;52.432;20.662;2024-02-28T02:35:55;98.10;;;66.28;;
36359;SDS011;22388;52.432;20.662;2024-02-28T02:38:21;99.20;;;63.70;;
36359;SDS011;22388;52.432;20.662;2024-02-28T02:40:50;104.53;;;61.95;;
36359;SDS011;22388;52.432;20.662;2024-02-28T02:43:15;102.22;;;62.50;;
36359;SDS011;22388;52.432;20.662;2024-02-28T02:45:41;102.20;;;61.75;;
36359;SDS011;22388;52.432;20.662;2024-02-28T02:48:06;101.00;;;66.32;;
36359;SDS011;22388;52.432;20.662;2024-02-28T02:50:32;112.55;;;68.32;;
36359;SDS011;22388;52.432;20.662;2024-02-28T02:52:57;95.82;;;65.97;;
36359;SDS011;22388;52.432;20.662;2024-02-28T02:55:23;96.25;;;65.40;;
36359;SDS011;22388;52.432;20.662;2024-02-28T02:57:48;101.78;;;65.82;;
36359;SDS011;22388;52.432;20.662;2024-02-28T03:00:13;106.47;;;65.28;;
36359;SDS011;22388;52.432;20.662;2024-02-28T03:02:39;98.65;;;61.78;;
36359;SDS011;22388;52.432;20.662;2024-02-28T03:05:05;90.15;;;57.72;;
36359;SDS011;22388;52.432;20.662;2024-02-28T03:07:30;90.45;;;60.10;;
36359;SDS011;22388;52.432;20.662;2024-02-28T03:09:56;109.78;;;62.80;;
36359;SDS011;22388;52.432;20.662;2024-02-28T03:12:21;100.45;;;62.88;;
36359;SDS011;22388;52.432;20.662;2024-02-28T03:14:47;106.85;;;66.97;;
36359;SDS011;22388;52.432;20.662;2024-02-28T03:17:13;101.82;;;64.65;;
36359;SDS011;22388;52.432;20.662;2024-02-28T03:19:38;101.55;;;64.93;;
36359;SDS011;22388;52.432;20.662;2024-02-28T03:22:04;100.57;;;65.13;;
36359;SDS011;22388;52.432;20.662;2024-02-28T03:24:29;96.72;;;61.28;;
36359;SDS011;22388;52.432;20.662;2024-02-28T03:26:54;100.80;;;62.40;;
36359;SDS011;22388;52.432;20.662;2024-02-28T03:29:20;102.93;;;64.35;;
36359;SDS011;22388;52.432;20.662;2024-02-28T03:31:45;94.72;;;59.90;;
36359;SDS011;22388;52.432;20.662;2024-02-28T03:34:11;100.43;;;61.13;;
36359;SDS011;22388;52.432;20.662;2024-02-28T03:36:36;100.78;;;60.13;;
36359;SDS011;22388;52.432;20.662;2024-02-28T03:39:02;100.75;;;64.43;;
36359;SDS011;22388;52.432;20.662;2024-02-28T03:41:27;98.63;;;62.75;;
36359;SDS011;22388;52.432;20.662;2024-02-28T03:43:53;96.47;;;61.03;;
36359;SDS011;22388;52.432;20.662;2024-02-28T03:46:18;99.90;;;61.05;;
36359;SDS011;22388;52.432;20.662;2024-02-28T03:48:44;98.40;;;61.75;;
36359;SDS011;22388;52.432;20.662;2024-02-28T03:51:09;102.03;;;63.53;;
36359;SDS011;22388;52.432;20.662;2024-02-28T03:53:35;107.22;;;64.68;;
36359;SDS011;22388;52.432;20.662;2024-02-28T03:56:00;98.30;;;64.03;;
36359;SDS011;22388;52.432;20.662;2024-02-28T03:58:26;94.63;;;62.03;;
36359;SDS011;22388;52.432;20.662;2024-02-28T04:00:51;103.68;;;62.65;;
36359;SDS011;22388;52.432;20.662;2024-02-28T04:03:16;101.70;;;62.38;;
36359;SDS011;22388;52.432;20.662;2024-02-28T04:05:42;95.78;;;60.67;;
36359;SDS011;22388;52.432;20.662;2024-02-28T04:08:08;98.70;;;61.75;;
36359;SDS011;22388;52.432;20.662;2024-02-28T04:10:33;99.53;;;62.08;;
36359;SDS011;22388;52.432;20.662;2024-02-28T04:12:58;103.72;;;62.85;;
36359;SDS011;22388;52.432;20.662;2024-02-28T04:15:24;100.60;;;63.45;;
36359;SDS011;22388;52.432;20.662;2024-02-28T04:17:51;101.75;;;61.92;;
36359;SDS011;22388;52.432;20.662;2024-02-28T04:20:16;99.13;;;60.03;;
36359;SDS011;22388;52.432;20.662;2024-02-28T04:22:42;94.60;;;61.25;;
36359;SDS011;22388;52.432;20.662;2024-02-28T04:25:08;99.32;;;61.95;;
36359;SDS011;22388;52.432;20.662;2024-02-28T04:27:36;107.80;;;63.85;;
36359;SDS011;22388;52.432;20.662;2024-02-28T04:30:02;100.03;;;62.08;;
36359;SDS011;22388;52.432;20.662;2024-02-28T04:32:28;100.15;;;63.17;;
36359;SDS011;22388;52.432;20.662;2024-02-28T04:34:53;102.20;;;62.97;;
36359;SDS011;22388;52.432;20.662;2024-02-28T04:37:18;107.13;;;64.50;;
36359;SDS011;22388;52.432;20.662;2024-02-28T04:39:44;101.70;;;61.40;;
36359;SDS011;22388;52.432;20.662;2024-02-28T04:42:10;103.45;;;64.97;;
36359;SDS011;22388;52.432;20.662;2024-02-28T04:44:35;103.97;;;65.25;;
36359;SDS011;22388;52.432;20.662;2024-02-28T04:47:01;106.32;;;64.90;;
36359;SDS011;22388;52.432;20.662;2024-02-28T04:49:26;107.00;;;66.90;;
36359;SDS011;22388;52.432;20.662;2024-02-28T04:51:52;105.82;;;66.40;;
36359;SDS011;22388;52.432;20.662;2024-02-28T04:54:18;106.25;;;67.57;;
36359;SDS011;22388;52.432;20.662;2024-02-28T04:56:43;111.05;;;68.30;;
36359;SDS011;22388;52.432;20.662;2024-02-28T04:59:11;108.70;;;67.07;;
36359;SDS011;22388;52.432;20.662;2024-02-28T05:01:36;109.60;;;68.40;;
36359;SDS011;22388;52.432;20.662;2024-02-28T05:04:05;105.50;;;68.43;;
36359;SDS011;22388;52.432;20.662;2024-02-28T05:06:30;113.15;;;68.88;;
36359;SDS011;22388;52.432;20.662;2024-02-28T05:08:56;103.40;;;65.57;;
36359;SDS011;22388;52.432;20.662;2024-02-28T05:11:21;113.85;;;70.65;;
36359;SDS011;22388;52.432;20.662;2024-02-28T05:13:46;113.53;;;69.28;;
36359;SDS011;22388;52.432;20.662;2024-02-28T05:16:15;109.32;;;70.82;;
36359;SDS011;22388;52.432;20.662;2024-02-28T05:18:41;97.63;;;62.00;;
36359;SDS011;22388;52.432;20.662;2024-02-28T05:21:06;89.05;;;59.38;;
36359;SDS011;22388;52.432;20.662;2024-02-28T05:23:32;91.05;;;59.53;;
36359;SDS011;22388;52.432;20.662;2024-02-28T05:25:57;104.93;;;68.50;;
36359;SDS011;22388;52.432;20.662;2024-02-28T05:28:28;108.68;;;66.03;;
36359;SDS011;22388;52.432;20.662;2024-02-28T05:30:54;101.88;;;64.65;;
36359;SDS011;22388;52.432;20.662;2024-02-28T05:33:19;112.00;;;68.85;;
36359;SDS011;22388;52.432;20.662;2024-02-28T05:35:45;107.57;;;65.78;;
36359;SDS011;22388;52.432;20.662;2024-02-28T05:38:10;115.95;;;72.15;;
36359;SDS011;22388;52.432;20.662;2024-02-28T05:40:36;106.97;;;70.40;;
36359;SDS011;22388;52.432;20.662;2024-02-28T05:43:01;118.28;;;72.50;;
36359;SDS011;22388;52.432;20.662;2024-02-28T05:48:30;106.47;;;65.47;;
36359;SDS011;22388;52.432;20.662;2024-02-28T05:50:55;95.60;;;61.63;;
36359;SDS011;22388;52.432;20.662;2024-02-28T05:53:21;101.18;;;62.17;;
36359;SDS011;22388;52.432;20.662;2024-02-28T05:55:46;101.35;;;62.22;;
36359;SDS011;22388;52.432;20.662;2024-02-28T05:58:13;109.50;;;67.93;;
36359;SDS011;22388;52.432;20.662;2024-02-28T06:00:38;108.78;;;71.03;;
36359;SDS011;22388;52.432;20.662;2024-02-28T06:03:04;105.93;;;67.05;;
36359;SDS011;22388;52.432;20.662;2024-02-28T06:05:29;109.50;;;68.40;;
36359;SDS011;22388;52.432;20.662;2024-02-28T06:07:55;109.38;;;70.75;;
36359;SDS011;22388;52.432;20.662;2024-02-28T06:10:20;125.63;;;77.80;;
36359;SDS011;22388;52.432;20.662;2024-02-28T06:12:46;125.68;;;77.90;;
36359;SDS011;22388;52.432;20.662;2024-02-28T06:15:11;120.88;;;73.32;;
36359;SDS011;22388;52.432;20.662;2024-02-28T06:17:37;143.40;;;80.93;;
36359;SDS011;22388;52.432;20.662;2024-02-28T06:20:03;134.55;;;83.43;;
36359;SDS011;22388;52.432;20.662;2024-02-28T06:22:29;147.20;;;85.18;;
36359;SDS011;22388;52.432;20.662;2024-02-28T06:24:54;154.43;;;87.40;;
36359;SDS011;22388;52.432;20.662;2024-02-28T06:27:19;147.63;;;83.50;;
36359;SDS011;22388;52.432;20.662;2024-02-28T06:29:45;161.90;;;85.95;;
36359;SDS011;22388;52.432;20.662;2024-02-28T06:32:10;205.88;;;89.53;;
36359;SDS011;22388;52.432;20.662;2024-02-28T06:34:36;267.02;;;90.03;;
36359;SDS011;22388;52.432;20.662;2024-02-28T06:37:01;201.70;;;89.72;;
36359;SDS011;22388;52.432;20.662;2024-02-28T06:39:27;197.70;;;92.60;;
36359;SDS011;22388;52.432;20.662;2024-02-28T06:41:52;261.88;;;93.35;;
36359;SDS011;22388;52.432;20.662;2024-02-28T06:44:18;289.60;;;89.97;;
36359;SDS011;22388;52.432;20.662;2024-02-28T06:46:43;294.73;;;91.65;;
36359;SDS011;22388;52.432;20.662;2024-02-28T06:49:09;164.07;;;92.15;;
36359;SDS011;22388;52.432;20.662;2024-02-28T06:51:34;169.85;;;92.25;;
36359;SDS011;22388;52.432;20.662;2024-02-28T06:53:59;182.90;;;96.93;;
36359;SDS011;22388;52.432;20.662;2024-02-28T06:56:25;324.70;;;93.45;;
36359;SDS011;22388;52.432;20.662;2024-02-28T06:58:50;157.07;;;89.32;;
36359;SDS011;22388;52.432;20.662;2024-02-28T07:01:17;255.82;;;92.40;;
36359;SDS011;22388;52.432;20.662;2024-02-28T07:03:42;148.05;;;87.72;;
36359;SDS011;22388;52.432;20.662;2024-02-28T07:06:08;347.02;;;93.60;;
36359;SDS011;22388;52.432;20.662;2024-02-28T07:08:33;296.02;;;91.88;;
36359;SDS011;22388;52.432;20.662;2024-02-28T07:10:58;190.15;;;91.50;;
36359;SDS011;22388;52.432;20.662;2024-02-28T07:13:24;241.52;;;93.45;;
36359;SDS011;22388;52.432;20.662;2024-02-28T07:15:49;165.85;;;91.60;;
36359;SDS011;22388;52.432;20.662;2024-02-28T07:18:15;420.83;;;96.13;;
36359;SDS011;22388;52.432;20.662;2024-02-28T07:20:40;179.60;;;92.78;;
36359;SDS011;22388;52.432;20.662;2024-02-28T07:23:06;261.52;;;93.68;;
36359;SDS011;22388;52.432;20.662;2024-02-28T07:25:31;325.15;;;94.30;;
36359;SDS011;22388;52.432;20.662;2024-02-28T07:27:57;288.30;;;94.13;;
36359;SDS011;22388;52.432;20.662;2024-02-28T07:30:24;176.27;;;87.63;;
36359;SDS011;22388;52.432;20.662;2024-02-28T07:32:49;223.07;;;89.57;;
36359;SDS011;22388;52.432;20.662;2024-02-28T07:35:15;190.95;;;90.20;;
36359;SDS011;22388;52.432;20.662;2024-02-28T07:37:41;358.80;;;97.80;;
36359;SDS011;22388;52.432;20.662;2024-02-28T07:40:12;363.65;;;98.00;;
36359;SDS011;22388;52.432;20.662;2024-02-28T07:42:37;198.95;;;97.93;;
36359;SDS011;22388;52.432;20.662;2024-02-28T07:45:03;440.63;;;95.47;;
36359;SDS011;22388;52.432;20.662;2024-02-28T07:47:28;320.10;;;93.93;;
36359;SDS011;22388;52.432;20.662;2024-02-28T07:49:54;295.25;;;89.43;;
36359;SDS011;22388;52.432;20.662;2024-02-28T07:52:19;411.35;;;90.30;;
36359;SDS011;22388;52.432;20.662;2024-02-28T07:54:45;273.02;;;89.88;;
36359;SDS011;22388;52.432;20.662;2024-02-28T07:57:11;337.00;;;90.43;;
36359;SDS011;22388;52.432;20.662;2024-02-28T07:59:42;190.20;;;86.97;;
36359;SDS011;22388;52.432;20.662;2024-02-28T08:02:09;302.67;;;89.90;;
36359;SDS011;22388;52.432;20.662;2024-02-28T08:04:38;162.13;;;89.63;;
36359;SDS011;22388;52.432;20.662;2024-02-28T08:07:03;368.42;;;86.95;;
36359;SDS011;22388;52.432;20.662;2024-02-28T08:09:29;338.88;;;86.70;;
36359;SDS011;22388;52.432;20.662;2024-02-28T08:11:54;230.00;;;81.78;;
36359;SDS011;22388;52.432;20.662;2024-02-28T08:14:20;180.15;;;80.32;;
36359;SDS011;22388;52.432;20.662;2024-02-28T08:16:46;152.57;;;81.63;;
36359;SDS011;22388;52.432;20.662;2024-02-28T08:19:11;154.27;;;81.85;;
36359;SDS011;22388;52.432;20.662;2024-02-28T08:21:37;218.68;;;82.38;;
36359;SDS011;22388;52.432;20.662;2024-02-28T08:24:02;170.57;;;80.22;;
36359;SDS011;22388;52.432;20.662;2024-02-28T08:26:30;178.57;;;82.70;;
36359;SDS011;22388;52.432;20.662;2024-02-28T08:28:55;149.45;;;78.07;;
36359;SDS011;22388;52.432;20.662;2024-02-28T08:31:21;162.23;;;80.93;;
36359;SDS011;22388;52.432;20.662;2024-02-28T08:33:46;164.60;;;80.93;;
36359;SDS011;22388;52.432;20.662;2024-02-28T08:36:12;139.88;;;74.90;;
36359;SDS011;22388;52.432;20.662;2024-02-28T08:38:37;137.68;;;71.20;;
36359;SDS011;22388;52.432;20.662;2024-02-28T08:41:04;134.85;;;72.75;;
36359;SDS011;22388;52.432;20.662;2024-02-28T08:43:29;138.77;;;72.78;;
36359;SDS011;22388;52.432;20.662;2024-02-28T08:45:55;127.85;;;73.13;;
36359;SDS011;22388;52.432;20.662;2024-02-28T08:48:21;120.03;;;70.15;;
36359;SDS011;22388;52.432;20.662;2024-02-28T08:50:46;127.20;;;71.22;;
36359;SDS011;22388;52.432;20.662;2024-02-28T08:53:11;125.90;;;74.95;;
36359;SDS011;22388;52.432;20.662;2024-02-28T08:55:37;131.68;;;72.40;;
36359;SDS011;22388;52.432;20.662;2024-02-28T08:58:03;138.30;;;77.88;;
36359;SDS011;22388;52.432;20.662;2024-02-28T09:00:28;129.02;;;72.50;;
36359;SDS011;22388;52.432;20.662;2024-02-28T09:02:54;135.20;;;75.85;;
36359;SDS011;22388;52.432;20.662;2024-02-28T09:05:19;139.73;;;79.68;;
36359;SDS011;22388;52.432;20.662;2024-02-28T09:07:44;145.93;;;80.97;;
36359;SDS011;22388;52.432;20.662;2024-02-28T09:10:11;133.25;;;80.90;;
36359;SDS011;22388;52.432;20.662;2024-02-28T09:12:36;132.77;;;79.35;;
36359;SDS011;22388;52.432;20.662;2024-02-28T09:15:02;125.90;;;77.35;;
36359;SDS011;22388;52.432;20.662;2024-02-28T09:17:27;134.15;;;80.03;;
36359;SDS011;22388;52.432;20.662;2024-02-28T09:19:53;138.57;;;82.38;;
36359;SDS011;22388;52.432;20.662;2024-02-28T09:22:19;135.10;;;83.00;;
36359;SDS011;22388;52.432;20.662;2024-02-28T09:24:46;142.73;;;84.38;;
36359;SDS011;22388;52.432;20.662;2024-02-28T09:27:11;124.88;;;77.22;;
36359;SDS011;22388;52.432;20.662;2024-02-28T09:29:37;121.78;;;75.45;;
36359;SDS011;22388;52.432;20.662;2024-02-28T09:32:03;121.35;;;76.65;;
36359;SDS011;22388;52.432;20.662;2024-02-28T09:34:29;120.88;;;74.88;;
36359;SDS011;22388;52.432;20.662;2024-02-28T09:36:54;122.68;;;76.22;;
36359;SDS011;22388;52.432;20.662;2024-02-28T09:39:19;115.63;;;76.05;;
36359;SDS011;22388;52.432;20.662;2024-02-28T09:41:49;114.18;;;75.07;;
36359;SDS011;22388;52.432;20.662;2024-02-28T09:44:15;121.32;;;75.95;;
36359;SDS011;22388;52.432;20.662;2024-02-28T09:46:41;123.85;;;76.15;;
36359;SDS011;22388;52.432;20.662;2024-02-28T09:49:07;121.38;;;74.80;;
36359;SDS011;22388;52.432;20.662;2024-02-28T09:51:34;124.25;;;76.30;;
36359;SDS011;22388;52.432;20.662;2024-02-28T09:54:01;121.88;;;75.95;;
36359;SDS011;22388;52.432;20.662;2024-02-28T09:56:27;118.65;;;72.15;;
36359;SDS011;22388;52.432;20.662;2024-02-28T09:58:54;122.00;;;76.20;;
36359;SDS011;22388;52.432;20.662;2024-02-28T10:01:19;124.28;;;75.57;;
36359;SDS011;22388;52.432;20.662;2024-02-28T10:03:46;119.55;;;74.45;;
36359;SDS011;22388;52.432;20.662;2024-02-28T10:06:12;114.90;;;70.45;;
36359;SDS011;22388;52.432;20.662;2024-02-28T10:08:38;111.50;;;69.82;;
36359;SDS011;22388;52.432;20.662;2024-02-28T10:11:04;102.47;;;65.13;;
36359;SDS011;22388;52.432;20.662;2024-02-28T10:13:31;103.32;;;64.32;;
36359;SDS011;22388;52.432;20.662;2024-02-28T10:15:56;102.68;;;63.40;;
36359;SDS011;22388;52.432;20.662;2024-02-28T10:18:21;99.20;;;62.50;;
36359;SDS011;22388;52.432;20.662;2024-02-28T10:20:47;97.82;;;63.25;;
36359;SDS011;22388;52.432;20.662;2024-02-28T10:23:12;99.97;;;62.00;;
36359;SDS011;22388;52.432;20.662;2024-02-28T10:25:45;102.60;;;62.92;;
36359;SDS011;22388;52.432;20.662;2024-02-28T10:30:42;96.75;;;57.65;;
36359;SDS011;22388;52.432;20.662;2024-02-28T10:33:11;91.40;;;55.45;;
36359;SDS011;22388;52.432;20.662;2024-02-28T10:35:38;91.15;;;53.78;;
36359;SDS011;22388;52.432;20.662;2024-02-28T10:38:04;83.05;;;52.95;;
36359;SDS011;22388;52.432;20.662;2024-02-28T10:40:30;77.63;;;47.58;;
36359;SDS011;22388;52.432;20.662;2024-02-28T10:42:56;76.80;;;48.03;;
36359;SDS011;22388;52.432;20.662;2024-02-28T10:45:23;75.13;;;45.30;;
36359;SDS011;22388;52.432;20.662;2024-02-28T10:47:50;72.60;;;45.63;;
36359;SDS011;22388;52.432;20.662;2024-02-28T10:50:16;71.68;;;46.22;;
36359;SDS011;22388;52.432;20.662;2024-02-28T10:52:45;75.78;;;46.38;;
36359;SDS011;22388;52.432;20.662;2024-02-28T10:55:20;67.40;;;42.55;;
36359;SDS011;22388;52.432;20.662;2024-02-28T10:57:47;64.65;;;41.13;;
36359;SDS011;22388;52.432;20.662;2024-02-28T11:00:13;65.40;;;41.17;;
36359;SDS011;22388;52.432;20.662;2024-02-28T11:02:41;61.58;;;40.33;;
36359;SDS011;22388;52.432;20.662;2024-02-28T11:05:08;68.70;;;42.85;;
36359;SDS011;22388;52.432;20.662;2024-02-28T11:07:34;63.92;;;40.85;;
36359;SDS011;22388;52.432;20.662;2024-02-28T11:10:04;60.22;;;39.88;;
36359;SDS011;22388;52.432;20.662;2024-02-28T11:12:30;60.88;;;38.67;;
36359;SDS011;22388;52.432;20.662;2024-02-28T11:14:56;67.20;;;40.42;;
36359;SDS011;22388;52.432;20.662;2024-02-28T11:17:25;65.93;;;39.30;;
36359;SDS011;22388;52.432;20.662;2024-02-28T11:19:51;63.67;;;38.67;;
36359;SDS011;22388;52.432;20.662;2024-02-28T11:22:17;68.28;;;38.63;;
36359;SDS011;22388;52.432;20.662;2024-02-28T11:24:43;63.50;;;38.72;;
36359;SDS011;22388;52.432;20.662;2024-02-28T11:27:11;73.90;;;43.60;;
36359;SDS011;22388;52.432;20.662;2024-02-28T11:29:39;75.50;;;45.65;;
36359;SDS011;22388;52.432;20.662;2024-02-28T11:32:04;73.82;;;43.40;;
36359;SDS011;22388;52.432;20.662;2024-02-28T11:34:30;74.55;;;43.03;;
36359;SDS011;22388;52.432;20.662;2024-02-28T11:36:55;74.85;;;41.80;;
36359;SDS011;22388;52.432;20.662;2024-02-28T11:39:22;76.30;;;42.80;;
36359;SDS011;22388;52.432;20.662;2024-02-28T11:41:50;73.85;;;42.13;;
36359;SDS011;22388;52.432;20.662;2024-02-28T11:44:18;75.50;;;41.78;;
36359;SDS011;22388;52.432;20.662;2024-02-28T11:46:49;82.80;;;42.60;;
36359;SDS011;22388;52.432;20.662;2024-02-28T11:49:15;82.90;;;42.93;;
36359;SDS011;22388;52.432;20.662;2024-02-28T11:51:44;90.22;;;43.55;;
36359;SDS011;22388;52.432;20.662;2024-02-28T11:54:09;87.97;;;44.78;;
36359;SDS011;22388;52.432;20.662;2024-02-28T11:56:38;94.57;;;45.53;;
36359;SDS011;22388;52.432;20.662;2024-02-28T11:59:04;91.25;;;46.53;;
36359;SDS011;22388;52.432;20.662;2024-02-28T12:01:36;91.65;;;45.17;;
36359;SDS011;22388;52.432;20.662;2024-02-28T12:04:03;93.93;;;44.97;;
36359;SDS011;22388;52.432;20.662;2024-02-28T12:06:30;93.60;;;47.38;;
36359;SDS011;22388;52.432;20.662;2024-02-28T12:08:55;91.20;;;44.80;;
36359;SDS011;22388;52.432;20.662;2024-02-28T12:11:21;87.57;;;43.17;;
36359;SDS011;22388;52.432;20.662;2024-02-28T12:13:46;90.13;;;44.20;;
36359;SDS011;22388;52.432;20.662;2024-02-28T12:16:12;93.20;;;44.17;;
36359;SDS011;22388;52.432;20.662;2024-02-28T12:18:37;83.43;;;42.53;;
36359;SDS011;22388;52.432;20.662;2024-02-28T12:21:03;93.25;;;45.17;;
36359;SDS011;22388;52.432;20.662;2024-02-28T12:23:29;94.15;;;45.17;;
36359;SDS011;22388;52.432;20.662;2024-02-28T12:25:54;92.28;;;45.25;;
36359;SDS011;22388;52.432;20.662;2024-02-28T12:28:20;87.40;;;44.72;;
36359;SDS011;22388;52.432;20.662;2024-02-28T12:30:46;88.13;;;44.45;;
36359;SDS011;22388;52.432;20.662;2024-02-28T12:33:12;91.30;;;44.08;;
36359;SDS011;22388;52.432;20.662;2024-02-28T12:35:37;88.65;;;42.88;;
36359;SDS011;22388;52.432;20.662;2024-02-28T12:38:03;80.10;;;38.50;;
36359;SDS011;22388;52.432;20.662;2024-02-28T12:40:28;75.45;;;38.80;;
36359;SDS011;22388;52.432;20.662;2024-02-28T12:42:54;79.22;;;39.42;;
36359;SDS011;22388;52.432;20.662;2024-02-28T12:45:19;75.03;;;37.00;;
36359;SDS011;22388;52.432;20.662;2024-02-28T12:47:44;75.63;;;38.22;;
36359;SDS011;22388;52.432;20.662;2024-02-28T12:50:10;79.60;;;37.22;;
36359;SDS011;22388;52.432;20.662;2024-02-28T12:52:36;83.25;;;38.00;;
36359;SDS011;22388;52.432;20.662;2024-02-28T12:55:01;77.85;;;37.72;;
36359;SDS011;22388;52.432;20.662;2024-02-28T12:57:27;75.95;;;36.67;;
36359;SDS011;22388;52.432;20.662;2024-02-28T12:59:53;73.03;;;34.70;;
36359;SDS011;22388;52.432;20.662;2024-02-28T13:02:18;70.63;;;36.58;;
36359;SDS011;22388;52.432;20.662;2024-02-28T13:04:45;76.68;;;36.50;;
36359;SDS011;22388;52.432;20.662;2024-02-28T13:07:10;82.65;;;38.58;;
36359;SDS011;22388;52.432;20.662;2024-02-28T13:09:35;75.82;;;38.45;;
36359;SDS011;22388;52.432;20.662;2024-02-28T13:12:01;73.35;;;37.50;;
36359;SDS011;22388;52.432;20.662;2024-02-28T13:14:27;79.20;;;37.53;;
36359;SDS011;22388;52.432;20.662;2024-02-28T13:16:53;72.03;;;35.17;;
36359;SDS011;22388;52.432;20.662;2024-02-28T13:19:24;77.45;;;35.83;;
36359;SDS011;22388;52.432;20.662;2024-02-28T13:21:50;75.15;;;36.80;;
36359;SDS011;22388;52.432;20.662;2024-02-28T13:24:15;73.35;;;36.60;;
36359;SDS011;22388;52.432;20.662;2024-02-28T13:26:42;69.30;;;36.30;;
36359;SDS011;22388;52.432;20.662;2024-02-28T13:29:08;70.00;;;36.78;;
36359;SDS011;22388;52.432;20.662;2024-02-28T13:31:34;71.72;;;36.50;;
36359;SDS011;22388;52.432;20.662;2024-02-28T13:34:00;66.80;;;34.47;;
36359;SDS011;22388;52.432;20.662;2024-02-28T13:36:25;75.60;;;36.72;;
36359;SDS011;22388;52.432;20.662;2024-02-28T13:38:51;64.95;;;35.35;;
36359;SDS011;22388;52.432;20.662;2024-02-28T13:41:19;61.97;;;34.53;;
36359;SDS011;22388;52.432;20.662;2024-02-28T13:43:45;63.80;;;35.10;;
36359;SDS011;22388;52.432;20.662;2024-02-28T13:46:10;57.58;;;33.45;;
36359;SDS011;22388;52.432;20.662;2024-02-28T13:48:35;58.15;;;33.42;;
36359;SDS011;22388;52.432;20.662;2024-02-28T13:51:01;62.58;;;34.63;;
36359;SDS011;22388;52.432;20.662;2024-02-28T13:53:29;57.10;;;33.80;;
36359;SDS011;22388;52.432;20.662;2024-02-28T13:55:54;62.15;;;34.50;;
36359;SDS011;22388;52.432;20.662;2024-02-28T13:58:20;73.97;;;39.80;;
36359;SDS011;22388;52.432;20.662;2024-02-28T14:00:45;69.18;;;38.83;;